Time;durP1;ratioP1;P1;durP2;ratioP2;P2;SDS_P1;SDS_P2;PMS_P1;PMS_P2;Temp;Humidity;BMP_temperature;BMP_pressure;BME280_temperature;BME280_humidity;BME280_pressure;Samples;Min_cycle;Max_cycle;Signal;HPM_P1;HPM_P2
2021/05/25 00:01:51;;;;;;;4.05;1.52;;;;;;;;;;5112495;28;20034;-75
2021/05/25 00:04:17;;;;;;;2.28;1.17;;;;;;;;;;5113416;28;20027;-78
2021/05/25 00:06:43;;;;;;;4.13;1.20;;;;;;;;;;5113231;28;20391;-74
2021/05/25 00:09:09;;;;;;;2.85;1.20;;;;;;;;;;5113122;28;20428;-75
2021/05/25 00:11:36;;;;;;;4.60;1.60;;;;;;;;;;5094953;28;20077;-78
2021/05/25 00:14:03;;;;;;;3.33;1.42;;;;;;;;;;5113241;28;20031;-78
2021/05/25 00:16:30;;;;;;;4.07;1.30;;;;;;;;;;5113197;28;20031;-76
2021/05/25 00:18:56;;;;;;;2.90;1.83;;;;;;;;;;5113155;28;20043;-76
2021/05/25 00:21:22;;;;;;;3.42;1.77;;;;;;;;;;5112916;28;20030;-77
2021/05/25 00:23:48;;;;;;;1.95;1.38;;;;;;;;;;5113102;28;20441;-75
2021/05/25 00:26:14;;;;;;;4.07;1.30;;;;;;;;;;5113048;28;20072;-77
2021/05/25 00:28:41;;;;;;;4.82;1.65;;;;;;;;;;5112924;28;20063;-75
2021/05/25 00:31:07;;;;;;;3.40;1.42;;;;;;;;;;5112860;28;20137;-78
2021/05/25 00:33:34;;;;;;;2.35;1.38;;;;;;;;;;5112820;28;20110;-76
2021/05/25 00:36:00;;;;;;;5.93;1.90;;;;;;;;;;5112884;28;20076;-77
2021/05/25 00:38:26;;;;;;;5.50;1.58;;;;;;;;;;5112561;28;20065;-78
2021/05/25 00:40:53;;;;;;;2.80;1.73;;;;;;;;;;5112907;28;20470;-78
2021/05/25 00:43:21;;;;;;;4.68;1.60;;;;;;;;;;5112662;28;20019;-75
2021/05/25 00:45:47;;;;;;;3.13;1.65;;;;;;;;;;5112820;28;20031;-75
2021/05/25 00:48:13;;;;;;;2.40;1.63;;;;;;;;;;5112591;28;20386;-78
2021/05/25 00:50:39;;;;;;;4.10;1.83;;;;;;;;;;5112688;28;20024;-78
2021/05/25 00:53:05;;;;;;;2.75;1.52;;;;;;;;;;5112664;28;20028;-75
2021/05/25 00:55:34;;;;;;;3.70;1.88;;;;;;;;;;5112661;28;20441;-76
2021/05/25 00:58:02;;;;;;;2.45;1.48;;;;;;;;;;5112580;28;20019;-78
2021/05/25 01:00:33;;;;;;;3.67;1.67;;;;;;;;;;5112571;28;20031;-78
2021/05/25 01:02:59;;;;;;;2.90;1.98;;;;;;;;;;5112535;28;20032;-78
2021/05/25 01:05:26;;;;;;;3.20;2.08;;;;;;;;;;5112557;28;20023;-76
2021/05/25 01:07:52;;;;;;;2.88;1.60;;;;;;;;;;5112764;28;20023;-76
2021/05/25 01:10:39;;;;;;;3.65;1.77;;;;;;;;;;5112322;28;20367;-77
2021/05/25 01:13:09;;;;;;;5.45;1.77;;;;;;;;;;5113205;28;20467;-75
2021/05/25 01:15:36;;;;;;;5.07;2.13;;;;;;;;;;5116733;28;20533;-79
2021/05/25 01:18:03;;;;;;;3.40;1.85;;;;;;;;;;5116317;28;20058;-76
2021/05/25 01:20:31;;;;;;;4.63;1.70;;;;;;;;;;5116771;28;20024;-76
2021/05/25 01:22:57;;;;;;;2.50;1.60;;;;;;;;;;5116365;28;20039;-77
2021/05/25 01:25:24;;;;;;;3.72;1.63;;;;;;;;;;5116684;28;20027;-79
2021/05/25 01:27:54;;;;;;;2.92;1.98;;;;;;;;;;5116353;28;20027;-78
2021/05/25 01:30:21;;;;;;;2.75;1.95;;;;;;;;;;5116494;28;20116;-78
2021/05/25 01:32:47;;;;;;;3.00;1.65;;;;;;;;;;5116240;28;20028;-78
2021/05/25 01:35:14;;;;;;;2.72;1.80;;;;;;;;;;5098041;28;20490;-77
2021/05/25 01:37:40;;;;;;;3.47;1.80;;;;;;;;;;5116412;28;20027;-76
2021/05/25 01:40:07;;;;;;;5.00;1.90;;;;;;;;;;5115918;28;20035;-76
2021/05/25 01:42:37;;;;;;;3.92;1.52;;;;;;;;;;5116240;28;20028;-78
2021/05/25 01:45:05;;;;;;;3.85;1.65;;;;;;;;;;5115959;28;20026;-77
2021/05/25 01:47:31;;;;;;;3.45;1.80;;;;;;;;;;5116091;28;20436;-78
2021/05/25 01:50:13;;;;;;;2.67;1.65;;;;;;;;;;5115910;28;20077;-76
2021/05/25 01:52:49;;;;;;;2.35;1.90;;;;;;;;;;5115732;28;20016;-76
2021/05/25 01:55:26;;;;;;;2.53;1.60;;;;;;;;;;5115917;28;20032;-79
2021/05/25 01:57:52;;;;;;;4.00;1.73;;;;;;;;;;5115906;28;20088;-79
2021/05/25 02:00:18;;;;;;;3.78;1.80;;;;;;;;;;5116004;28;20088;-77
2021/05/25 02:02:46;;;;;;;5.13;2.22;;;;;;;;;;5097427;28;20032;-76
2021/05/25 02:05:12;;;;;;;4.22;2.20;;;;;;;;;;5115937;28;20051;-76
2021/05/25 02:07:41;;;;;;;3.58;1.83;;;;;;;;;;5097205;28;20023;-76
2021/05/25 02:10:08;;;;;;;3.35;2.20;;;;;;;;;;5115646;28;20027;-78
2021/05/25 02:12:41;;;;;;;5.00;2.05;;;;;;;;;;5097079;28;20028;-78
2021/05/25 02:15:07;;;;;;;5.07;1.85;;;;;;;;;;5097406;28;20024;-77
2021/05/25 02:17:34;;;;;;;4.22;1.60;;;;;;;;;;5097074;28;20394;-77
2021/05/25 02:20:00;;;;;;;4.45;1.98;;;;;;;;;;5115359;28;20069;-77
2021/05/25 02:22:26;;;;;;;3.63;2.03;;;;;;;;;;5115360;28;20035;-76
2021/05/25 02:24:52;;;;;;;3.75;1.63;;;;;;;;;;5114525;28;20024;-78
2021/05/25 02:27:18;;;;;;;3.17;1.77;;;;;;;;;;5115452;28;20031;-76
2021/05/25 02:29:56;;;;;;;4.93;1.98;;;;;;;;;;5096770;28;20110;-76
2021/05/25 02:32:22;;;;;;;2.58;1.80;;;;;;;;;;5115545;28;20490;-76
2021/05/25 02:34:49;;;;;;;3.60;2.33;;;;;;;;;;5080059;28;20051;-78
2021/05/25 02:37:15;;;;;;;3.65;1.70;;;;;;;;;;5115240;28;20051;-78
2021/05/25 02:39:41;;;;;;;3.25;2.28;;;;;;;;;;5114835;28;20031;-79
2021/05/25 02:42:07;;;;;;;3.60;1.80;;;;;;;;;;5115043;28;20448;-79
2021/05/25 02:44:34;;;;;;;5.13;2.22;;;;;;;;;;5114945;28;20038;-76
2021/05/25 02:47:00;;;;;;;5.38;2.50;;;;;;;;;;5114894;28;20034;-76
2021/05/25 02:49:26;;;;;;;3.22;2.30;;;;;;;;;;5114740;28;20049;-75
2021/05/25 02:51:52;;;;;;;4.32;3.00;;;;;;;;;;5114908;28;20076;-78
2021/05/25 02:54:18;;;;;;;4.13;2.28;;;;;;;;;;5114816;28;20446;-78
2021/05/25 02:56:44;;;;;;;6.40;2.40;;;;;;;;;;5114554;28;20031;-79
2021/05/25 02:59:10;;;;;;;4.32;2.15;;;;;;;;;;5114784;28;20030;-76
2021/05/25 03:01:36;;;;;;;4.72;2.40;;;;;;;;;;5114431;28;20394;-75
2021/05/25 03:04:02;;;;;;;4.93;2.60;;;;;;;;;;5114567;28;20023;-77
2021/05/25 03:06:28;;;;;;;8.32;2.90;;;;;;;;;;5114714;28;20077;-77
2021/05/25 03:08:55;;;;;;;5.13;2.05;;;;;;;;;;5114443;28;20062;-76
2021/05/25 03:11:21;;;;;;;4.00;2.35;;;;;;;;;;5114608;28;20047;-76
2021/05/25 03:13:47;;;;;;;5.13;3.13;;;;;;;;;;5114297;28;20023;-77
2021/05/25 03:16:15;;;;;;;4.05;2.35;;;;;;;;;;5114337;28;20518;-78
2021/05/25 03:18:42;;;;;;;3.65;1.95;;;;;;;;;;5114300;28;20035;-77
2021/05/25 03:21:08;;;;;;;5.30;2.38;;;;;;;;;;5114412;28;20023;-78
2021/05/25 03:23:35;;;;;;;4.57;3.00;;;;;;;;;;5114376;28;20035;-76
2021/05/25 03:26:02;;;;;;;4.82;2.13;;;;;;;;;;5114150;28;20030;-76
2021/05/25 03:28:28;;;;;;;4.57;2.50;;;;;;;;;;5114275;28;20042;-75
2021/05/25 03:30:54;;;;;;;2.75;2.10;;;;;;;;;;5113909;28;20088;-77
2021/05/25 03:33:21;;;;;;;4.88;2.90;;;;;;;;;;5113883;28;20023;-76
2021/05/25 03:35:47;;;;;;;5.05;2.65;;;;;;;;;;5113620;28;20059;-75
2021/05/25 03:38:13;;;;;;;6.63;2.70;;;;;;;;;;5113984;28;20363;-77
2021/05/25 03:40:39;;;;;;;6.40;3.28;;;;;;;;;;5113938;28;20031;-76
2021/05/25 03:43:07;;;;;;;5.18;2.53;;;;;;;;;;5113563;28;20051;-78
2021/05/25 03:45:33;;;;;;;6.93;3.20;;;;;;;;;;5113820;28;20030;-76
2021/05/25 03:47:59;;;;;;;8.07;3.28;;;;;;;;;;5113583;28;20028;-76
2021/05/25 03:50:26;;;;;;;7.03;3.53;;;;;;;;;;5113881;28;20378;-78
2021/05/25 03:52:54;;;;;;;6.22;3.35;;;;;;;;;;5113468;28;20088;-75
2021/05/25 04:00:42;;;;;;;6.60;2.75;;;;;;;;;;5113883;28;20096;-77
2021/05/25 04:03:09;;;;;;;7.22;2.92;;;;;;;;;;5113700;28;20061;-75
2021/05/25 04:05:35;;;;;;;5.85;2.83;;;;;;;;;;5113253;28;20036;-75
2021/05/25 04:08:01;;;;;;;6.78;2.47;;;;;;;;;;5113420;28;20423;-78
2021/05/25 04:10:27;;;;;;;3.85;2.28;;;;;;;;;;5113172;28;20020;-76
2021/05/25 04:12:54;;;;;;;6.78;2.45;;;;;;;;;;5113370;28;20064;-75
2021/05/25 04:15:22;;;;;;;14.75;3.38;;;;;;;;;;5113241;28;20031;-77
2021/05/25 04:17:49;;;;;;;13.55;2.90;;;;;;;;;;5113119;28;20080;-76
2021/05/25 04:20:15;;;;;;;8.95;2.53;;;;;;;;;;5113040;28;20050;-78
2021/05/25 04:22:41;;;;;;;11.40;3.33;;;;;;;;;;5112948;28;20038;-77
2021/05/25 04:25:08;;;;;;;6.47;3.22;;;;;;;;;;5112948;28;20032;-77
2021/05/25 04:27:34;;;;;;;8.90;3.72;;;;;;;;;;5112880;28;20020;-77
2021/05/25 04:30:00;;;;;;;5.97;3.67;;;;;;;;;;5112994;28;20032;-79
2021/05/25 04:32:26;;;;;;;9.70;3.83;;;;;;;;;;5094462;28;20379;-76
2021/05/25 04:34:52;;;;;;;9.80;4.50;;;;;;;;;;5112390;28;20414;-76
2021/05/25 04:37:18;;;;;;;9.95;4.80;;;;;;;;;;5112759;28;20055;-77
2021/05/25 04:39:44;;;;;;;12.43;4.38;;;;;;;;;;5112303;28;20114;-77
2021/05/25 04:42:11;;;;;;;10.80;6.05;;;;;;;;;;5112678;28;20427;-77
2021/05/25 04:44:37;;;;;;;12.48;5.07;;;;;;;;;;5112325;28;20034;-76
2021/05/25 04:47:03;;;;;;;9.10;3.35;;;;;;;;;;5112657;28;20465;-76
2021/05/25 04:49:29;;;;;;;11.10;5.15;;;;;;;;;;5112223;28;20043;-78
2021/05/25 04:51:55;;;;;;;7.35;4.63;;;;;;;;;;5094114;28;20039;-76
2021/05/25 04:54:21;;;;;;;8.25;4.38;;;;;;;;;;5112499;28;20355;-78
2021/05/25 04:56:48;;;;;;;10.15;4.50;;;;;;;;;;5086864;28;20038;-76
2021/05/25 04:59:14;;;;;;;5.13;3.80;;;;;;;;;;5111878;28;20514;-77
2021/05/25 05:01:40;;;;;;;44.53;36.85;;;;;;;;;;5111112;28;20066;-77
2021/05/25 05:04:06;;;;;;;39.80;29.50;;;;;;;;;;5112550;28;20416;-77
2021/05/25 05:06:46;;;;;;;11.60;9.25;;;;;;;;;;5112523;28;20024;-77
2021/05/25 05:09:14;;;;;;;10.07;3.75;;;;;;;;;;5112234;28;20020;-77
2021/05/25 05:11:40;;;;;;;5.35;2.67;;;;;;;;;;5112117;28;20028;-76
2021/05/25 05:14:06;;;;;;;8.95;3.25;;;;;;;;;;5112211;28;20020;-76
2021/05/25 05:16:32;;;;;;;5.18;2.90;;;;;;;;;;5112050;28;20047;-76
2021/05/25 05:18:58;;;;;;;7.18;2.53;;;;;;;;;;5111829;28;20074;-76
2021/05/25 05:21:36;;;;;;;5.95;2.80;;;;;;;;;;5111793;28;20028;-77
2021/05/25 05:24:02;;;;;;;7.38;3.35;;;;;;;;;;5132476;28;20082;-77
2021/05/25 05:26:28;;;;;;;6.35;2.67;;;;;;;;;;5129164;28;20038;-77
2021/05/25 05:28:55;;;;;;;6.78;3.03;;;;;;;;;;5106691;28;20028;-77
2021/05/25 05:31:21;;;;;;;4.68;2.95;;;;;;;;;;5111916;28;20098;-78
2021/05/25 05:33:47;;;;;;;3.88;2.58;;;;;;;;;;5109946;28;20058;-77
2021/05/25 05:36:16;;;;;;;4.05;3.65;;;;;;;;;;5097328;28;20032;-76
2021/05/25 05:38:43;;;;;;;13.85;11.00;;;;;;;;;;5091251;28;20044;-75
2021/05/25 05:41:09;;;;;;;6.18;4.22;;;;;;;;;;5092061;28;20400;-77
2021/05/25 05:43:35;;;;;;;3.80;2.40;;;;;;;;;;5091891;28;20502;-77
2021/05/25 05:46:01;;;;;;;7.15;3.30;;;;;;;;;;5099127;28;20466;-76
2021/05/25 05:48:27;;;;;;;4.68;2.85;;;;;;;;;;5111772;28;20024;-77
2021/05/25 05:50:54;;;;;;;5.55;3.05;;;;;;;;;;5112310;28;20097;-76
2021/05/25 05:53:20;;;;;;;5.03;2.92;;;;;;;;;;5111839;28;20180;-77
2021/05/25 05:55:46;;;;;;;6.22;3.03;;;;;;;;;;5111935;28;20032;-80
2021/05/25 05:58:13;;;;;;;6.45;2.75;;;;;;;;;;5111803;28;20100;-78
2021/05/25 06:00:41;;;;;;;5.93;2.42;;;;;;;;;;5115733;28;20028;-78
2021/05/25 06:03:08;;;;;;;6.85;2.72;;;;;;;;;;5115408;28;20023;-77
2021/05/25 06:05:35;;;;;;;7.70;3.00;;;;;;;;;;5115843;28;20035;-74
2021/05/25 06:08:02;;;;;;;20.55;4.35;;;;;;;;;;5115505;28;20398;-75
2021/05/25 06:10:30;;;;;;;6.20;2.53;;;;;;;;;;5115572;28;20027;-74
2021/05/25 06:12:56;;;;;;;11.82;3.17;;;;;;;;;;5115029;28;20031;-77
2021/05/25 06:15:22;;;;;;;5.15;2.53;;;;;;;;;;5114955;28;20077;-77
2021/05/25 06:17:48;;;;;;;4.30;2.75;;;;;;;;;;5115277;28;20030;-77
2021/05/25 06:20:15;;;;;;;7.43;2.85;;;;;;;;;;5113971;28;20043;-77
2021/05/25 06:22:41;;;;;;;6.30;2.78;;;;;;;;;;5114527;28;20444;-77
2021/05/25 06:25:07;;;;;;;7.95;2.40;;;;;;;;;;5098481;28;20384;-77
2021/05/25 06:27:34;;;;;;;4.78;3.42;;;;;;;;;;5093119;28;20529;-77
2021/05/25 06:30:00;;;;;;;6.63;2.80;;;;;;;;;;5093771;28;20020;-77
2021/05/25 06:32:26;;;;;;;9.48;3.28;;;;;;;;;;5092394;28;20067;-77
2021/05/25 06:34:54;;;;;;;4.43;2.70;;;;;;;;;;5092857;28;20105;-77
2021/05/25 06:37:20;;;;;;;7.63;2.78;;;;;;;;;;5092217;28;20028;-78
2021/05/25 06:39:46;;;;;;;5.38;2.75;;;;;;;;;;5093365;28;20146;-77
2021/05/25 06:42:12;;;;;;;6.13;3.00;;;;;;;;;;5092658;28;20051;-77
2021/05/25 06:44:39;;;;;;;6.45;2.60;;;;;;;;;;5093254;28;20077;-76
2021/05/25 06:47:05;;;;;;;5.55;2.90;;;;;;;;;;5092845;28;20089;-77
2021/05/25 06:49:31;;;;;;;5.35;2.67;;;;;;;;;;5092958;28;20032;-78
2021/05/25 06:51:57;;;;;;;5.05;2.45;;;;;;;;;;5093394;28;20482;-76
2021/05/25 06:54:23;;;;;;;5.90;2.30;;;;;;;;;;5092913;28;20115;-76
2021/05/25 06:56:49;;;;;;;4.80;2.20;;;;;;;;;;5092845;28;20036;-76
2021/05/25 06:59:15;;;;;;;5.55;2.65;;;;;;;;;;5092857;28;20028;-74
2021/05/25 07:01:42;;;;;;;6.97;3.30;;;;;;;;;;5092820;28;20035;-75
2021/05/25 07:04:08;;;;;;;6.05;2.63;;;;;;;;;;5092296;28;20058;-76
2021/05/25 07:06:34;;;;;;;4.25;2.63;;;;;;;;;;5074787;28;20036;-75
2021/05/25 07:09:00;;;;;;;7.45;2.60;;;;;;;;;;5093033;28;20023;-74
2021/05/25 07:11:26;;;;;;;8.65;4.35;;;;;;;;;;5091723;28;20024;-74
2021/05/25 07:13:52;;;;;;;5.35;2.20;;;;;;;;;;5110418;28;20035;-74
2021/05/25 07:16:18;;;;;;;6.05;4.35;;;;;;;;;;5112817;28;20089;-77
2021/05/25 07:18:45;;;;;;;7.07;4.80;;;;;;;;;;5112959;28;20093;-74
2021/05/25 07:21:11;;;;;;;7.35;3.05;;;;;;;;;;5113053;28;20114;-75
2021/05/25 07:23:37;;;;;;;4.53;3.20;;;;;;;;;;5112822;28;20019;-76
2021/05/25 07:26:04;;;;;;;5.60;2.80;;;;;;;;;;5112953;28;20023;-74
2021/05/25 07:28:30;;;;;;;5.28;3.38;;;;;;;;;;5112579;28;20015;-74
2021/05/25 07:30:56;;;;;;;5.90;3.17;;;;;;;;;;5112537;28;20024;-74
2021/05/25 07:33:24;;;;;;;15.45;11.90;;;;;;;;;;5112100;28;20099;-73
2021/05/25 07:35:50;;;;;;;7.68;4.63;;;;;;;;;;5112911;28;20114;-73
2021/05/25 07:38:16;;;;;;;6.10;3.80;;;;;;;;;;5112629;28;20518;-73
2021/05/25 07:40:43;;;;;;;4.30;2.47;;;;;;;;;;5112169;28;20035;-74
2021/05/25 07:43:10;;;;;;;4.28;2.75;;;;;;;;;;5111400;28;20047;-75
2021/05/25 07:45:36;;;;;;;9.50;3.20;;;;;;;;;;5112528;28;20023;-75
2021/05/25 07:48:02;;;;;;;5.80;2.50;;;;;;;;;;5112444;28;20027;-75
2021/05/25 07:50:28;;;;;;;3.75;2.60;;;;;;;;;;5111776;28;20023;-75
2021/05/25 07:52:57;;;;;;;7.15;2.85;;;;;;;;;;5111207;28;20028;-73
2021/05/25 07:55:24;;;;;;;5.35;2.45;;;;;;;;;;5112032;28;20038;-74
2021/05/25 07:57:51;;;;;;;10.90;3.22;;;;;;;;;;5112000;28;20390;-74
2021/05/25 08:00:17;;;;;;;10.85;4.53;;;;;;;;;;5112239;28;20042;-74
2021/05/25 08:02:44;;;;;;;11.55;5.57;;;;;;;;;;5111695;28;20355;-74
2021/05/25 08:05:11;;;;;;;6.30;2.80;;;;;;;;;;5112075;28;20023;-75
2021/05/25 08:07:37;;;;;;;6.30;2.55;;;;;;;;;;5111813;28;20020;-76
2021/05/25 08:10:05;;;;;;;8.55;3.50;;;;;;;;;;5111880;28;20020;-77
2021/05/25 08:12:31;;;;;;;5.15;3.80;;;;;;;;;;5105281;28;20028;-77
2021/05/25 08:14:59;;;;;;;5.95;2.70;;;;;;;;;;5073151;28;20047;-79
2021/05/25 08:20:06;;;;;;;6.60;3.70;;;;;;;;;;5091321;28;20439;-86
2021/05/25 08:22:33;;;;;;;4.97;2.22;;;;;;;;;;5090546;28;20059;-83
2021/05/25 08:24:59;;;;;;;8.38;2.75;;;;;;;;;;5091483;28;20020;-83
2021/05/25 08:27:25;;;;;;;5.32;2.88;;;;;;;;;;5111621;28;20027;-82
2021/05/25 08:29:51;;;;;;;5.53;2.70;;;;;;;;;;5112043;28;20031;-86
2021/05/25 08:32:17;;;;;;;6.38;2.75;;;;;;;;;;5094152;28;20390;-85
2021/05/25 08:34:43;;;;;;;5.88;3.28;;;;;;;;;;5112018;28;20401;-74
2021/05/25 08:37:10;;;;;;;6.22;2.63;;;;;;;;;;5111504;28;20117;-79
2021/05/25 08:39:36;;;;;;;8.23;3.22;;;;;;;;;;5111628;28;20035;-75
2021/05/25 08:42:03;;;;;;;8.90;4.70;;;;;;;;;;5112258;28;20035;-75
2021/05/25 08:44:29;;;;;;;5.90;4.20;;;;;;;;;;5112392;28;20020;-75
2021/05/25 08:46:55;;;;;;;5.82;3.10;;;;;;;;;;5112307;28;20019;-75
2021/05/25 08:49:22;;;;;;;3.40;2.53;;;;;;;;;;5112023;28;20028;-79
2021/05/25 08:51:48;;;;;;;9.55;7.43;;;;;;;;;;5112029;28;20059;-77
2021/05/25 08:54:14;;;;;;;5.57;2.55;;;;;;;;;;5111943;28;20558;-76
2021/05/25 08:56:40;;;;;;;4.93;2.25;;;;;;;;;;5093746;28;20038;-78
2021/05/25 08:59:06;;;;;;;3.53;2.45;;;;;;;;;;5111979;28;20131;-77
2021/05/25 09:01:33;;;;;;;6.90;2.70;;;;;;;;;;5105058;28;20592;-79
2021/05/25 09:04:06;;;;;;;6.82;2.70;;;;;;;;;;5112003;28;20035;-78
2021/05/25 09:06:51;;;;;;;3.63;2.17;;;;;;;;;;5107524;28;20030;-78
2021/05/25 09:09:21;;;;;;;4.82;2.83;;;;;;;;;;5109183;28;20039;-78
2021/05/25 09:12:06;;;;;;;10.85;5.63;;;;;;;;;;5110398;28;20027;-76
2021/05/25 09:14:34;;;;;;;8.50;3.60;;;;;;;;;;5086630;28;20020;-78
2021/05/25 09:17:21;;;;;;;6.88;3.05;;;;;;;;;;5107983;28;20038;-77
2021/05/25 09:19:48;;;;;;;5.68;2.88;;;;;;;;;;5108722;28;20513;-75
2021/05/25 09:22:33;;;;;;;8.10;2.85;;;;;;;;;;5110036;28;20020;-78
2021/05/25 09:25:05;;;;;;;5.25;3.13;;;;;;;;;;5071655;28;20028;-76
2021/05/25 09:27:36;;;;;;;6.85;2.88;;;;;;;;;;5072838;28;20104;-75
2021/05/25 09:30:11;;;;;;;3.80;2.50;;;;;;;;;;5089861;28;20028;-76
2021/05/25 09:32:39;;;;;;;6.90;3.10;;;;;;;;;;5090890;28;20024;-75
2021/05/25 09:35:05;;;;;;;7.28;3.15;;;;;;;;;;5092828;28;20526;-76
2021/05/25 09:37:31;;;;;;;5.38;3.20;;;;;;;;;;5094631;28;20055;-81
2021/05/25 09:40:04;;;;;;;3.30;2.88;;;;;;;;;;5076152;28;20506;-77
2021/05/25 09:42:30;;;;;;;4.80;2.40;;;;;;;;;;5094797;28;20020;-76
2021/05/25 09:44:57;;;;;;;9.30;3.42;;;;;;;;;;5075597;28;20443;-76
2021/05/25 09:47:35;;;;;;;8.45;2.75;;;;;;;;;;5094830;28;20024;-78
2021/05/25 09:50:02;;;;;;;3.88;2.35;;;;;;;;;;5094251;28;20035;-80
2021/05/25 09:52:28;;;;;;;4.38;2.80;;;;;;;;;;5075826;28;20498;-75
2021/05/25 09:55:16;;;;;;;6.07;2.83;;;;;;;;;;5094190;28;20035;-78
2021/05/25 09:57:46;;;;;;;4.43;2.20;;;;;;;;;;5094328;28;20024;-78
2021/05/25 10:00:33;;;;;;;4.60;2.75;;;;;;;;;;5093607;28;20042;-76
2021/05/25 10:03:12;;;;;;;5.43;2.60;;;;;;;;;;5108635;28;20070;-77
2021/05/25 10:05:38;;;;;;;3.20;2.38;;;;;;;;;;5114419;28;20106;-77
2021/05/25 10:08:05;;;;;;;4.05;2.50;;;;;;;;;;5114066;28;20490;-78
2021/05/25 10:10:33;;;;;;;3.85;2.42;;;;;;;;;;5114077;28;20057;-77
2021/05/25 10:12:59;;;;;;;4.68;2.65;;;;;;;;;;5091509;28;20069;-81
2021/05/25 10:15:27;;;;;;;4.18;2.42;;;;;;;;;;5113118;28;20037;-78
2021/05/25 10:20:39;;;;;;;6.78;3.17;;;;;;;;;;5107186;28;20445;-76
2021/05/25 10:23:06;;;;;;;5.60;2.63;;;;;;;;;;5077483;28;20036;-77
2021/05/25 10:25:34;;;;;;;8.43;2.70;;;;;;;;;;5093279;28;20034;-79
2021/05/25 10:28:05;;;;;;;17.52;12.90;;;;;;;;;;5093196;28;20082;-77
2021/05/25 10:30:36;;;;;;;4.43;2.38;;;;;;;;;;5092973;28;20590;-76
2021/05/25 10:33:20;;;;;;;5.95;3.42;;;;;;;;;;5093146;28;20024;-76
2021/05/25 10:36:05;;;;;;;7.70;2.63;;;;;;;;;;5109599;28;20035;-80
2021/05/25 10:38:33;;;;;;;4.28;3.03;;;;;;;;;;5113621;28;20485;-78
2021/05/25 10:41:01;;;;;;;15.65;4.30;;;;;;;;;;5104969;28;20043;-79
2021/05/25 10:43:33;;;;;;;5.32;2.35;;;;;;;;;;5093623;28;20020;-75
2021/05/25 10:46:11;;;;;;;10.25;3.60;;;;;;;;;;5092126;28;20490;-76
2021/05/25 10:49:24;;;;;;;12.05;3.63;;;;;;;;;;5093269;28;20602;-78
2021/05/25 10:52:03;;;;;;;9.48;3.15;;;;;;;;;;5090988;28;20484;-77
2021/05/25 10:54:45;;;;;;;11.25;5.03;;;;;;;;;;5092866;28;20479;-80
2021/05/25 10:57:48;;;;;;;6.18;3.17;;;;;;;;;;5092258;28;20043;-76
2021/05/25 11:00:38;;;;;;;6.50;3.67;;;;;;;;;;4990580;28;20050;-81
2021/05/25 11:03:25;;;;;;;10.15;2.80;;;;;;;;;;4985667;28;20080;-76
2021/05/25 11:05:55;;;;;;;6.32;2.70;;;;;;;;;;4990921;28;20034;-78
2021/05/25 11:08:24;;;;;;;10.85;3.45;;;;;;;;;;4990875;28;20073;-78
2021/05/25 11:10:52;;;;;;;6.57;3.25;;;;;;;;;;4991140;28;20067;-80
2021/05/25 11:13:21;;;;;;;5.20;3.15;;;;;;;;;;5021584;28;20500;-76
2021/05/25 11:16:07;;;;;;;6.20;2.90;;;;;;;;;;5099290;28;20044;-78
2021/05/25 11:27:15;;;;;;;4.88;2.63;;;;;;;;;;5113091;28;20033;-79
2021/05/25 11:29:42;;;;;;;6.03;2.73;;;;;;;;;;5112823;28;20080;-78
2021/05/25 11:32:26;;;;;;;4.03;3.00;;;;;;;;;;5112777;28;20050;-85
2021/05/25 11:34:56;;;;;;;7.47;2.55;;;;;;;;;;5112216;28;20527;-77
2021/05/25 11:37:22;;;;;;;5.00;2.42;;;;;;;;;;5102457;28;20032;-78
2021/05/25 11:39:48;;;;;;;4.65;3.00;;;;;;;;;;5086461;28;20039;-75
2021/05/25 11:42:14;;;;;;;7.53;3.00;;;;;;;;;;5098950;28;20048;-79
2021/05/25 11:44:45;;;;;;;4.82;2.53;;;;;;;;;;5102831;27;20030;-79
2021/05/25 11:47:12;;;;;;;7.20;3.20;;;;;;;;;;5094501;28;20515;-77
2021/05/25 11:49:43;;;;;;;8.73;6.40;;;;;;;;;;5095488;28;20522;-76
2021/05/25 11:52:19;;;;;;;11.88;6.55;;;;;;;;;;5099150;28;20483;-80
2021/05/25 11:54:45;;;;;;;6.18;3.00;;;;;;;;;;5087362;28;20031;-78
2021/05/25 11:57:23;;;;;;;8.45;3.83;;;;;;;;;;5112396;28;20024;-75
2021/05/25 11:59:49;;;;;;;5.85;3.13;;;;;;;;;;5111846;28;20136;-75
2021/05/25 12:02:29;;;;;;;6.85;2.80;;;;;;;;;;5112219;28;20494;-77
2021/05/25 12:05:01;;;;;;;8.52;2.90;;;;;;;;;;5111906;28;20027;-76
2021/05/25 12:07:27;;;;;;;8.30;2.63;;;;;;;;;;5112053;28;20027;-78
2021/05/25 12:09:54;;;;;;;6.22;3.03;;;;;;;;;;5112142;28;20429;-79
2021/05/25 12:12:41;;;;;;;10.98;3.25;;;;;;;;;;5111950;28;20060;-77
2021/05/25 12:15:12;;;;;;;7.40;3.22;;;;;;;;;;5111937;28;20024;-80
2021/05/25 12:17:39;;;;;;;6.85;2.50;;;;;;;;;;5111676;28;20084;-79
2021/05/25 12:20:05;;;;;;;6.82;2.88;;;;;;;;;;5111429;28;20498;-77
2021/05/25 12:22:33;;;;;;;6.15;2.63;;;;;;;;;;5111601;28;20019;-79
2021/05/25 12:25:18;;;;;;;4.97;2.60;;;;;;;;;;5110951;28;20546;-77
2021/05/25 12:27:45;;;;;;;7.50;2.78;;;;;;;;;;5103793;28;20823;-78
2021/05/25 12:30:14;;;;;;;4.68;2.58;;;;;;;;;;5104553;28;20027;-81
2021/05/25 12:32:40;;;;;;;6.65;3.67;;;;;;;;;;5091122;28;20019;-76
2021/05/25 12:35:07;;;;;;;6.50;2.67;;;;;;;;;;5090647;28;20141;-81
2021/05/25 12:37:33;;;;;;;8.25;6.18;;;;;;;;;;5091228;28;20024;-78
2021/05/25 12:40:18;;;;;;;12.05;5.53;;;;;;;;;;5091156;28;20048;-76
2021/05/25 12:42:44;;;;;;;8.25;4.85;;;;;;;;;;5093193;28;20024;-78
2021/05/25 12:45:12;;;;;;;12.50;8.95;;;;;;;;;;5100178;28;20436;-78
2021/05/25 12:47:55;;;;;;;8.82;3.33;;;;;;;;;;5090794;28;20443;-77
2021/05/25 12:50:43;;;;;;;4.45;2.60;;;;;;;;;;5090195;28;20028;-74
2021/05/25 12:53:13;;;;;;;9.00;3.20;;;;;;;;;;5090412;28;20099;-77
2021/05/25 12:56:02;;;;;;;8.60;3.13;;;;;;;;;;5090537;28;20043;-77
2021/05/25 12:58:34;;;;;;;6.90;2.75;;;;;;;;;;5091925;28;20079;-78
2021/05/25 13:01:00;;;;;;;9.95;5.28;;;;;;;;;;5091987;28;20039;-76
2021/05/25 13:03:27;;;;;;;7.28;6.13;;;;;;;;;;5103922;28;20020;-78
2021/05/25 13:06:10;;;;;;;7.05;2.58;;;;;;;;;;5112424;28;20110;-76
2021/05/25 13:08:36;;;;;;;6.97;4.13;;;;;;;;;;5094683;28;20039;-78
2021/05/25 13:11:09;;;;;;;7.82;3.78;;;;;;;;;;5116470;28;20450;-79
2021/05/25 13:13:39;;;;;;;5.50;2.63;;;;;;;;;;5117075;28;20106;-77
2021/05/25 13:16:05;;;;;;;7.72;2.80;;;;;;;;;;5098255;28;20394;-79
2021/05/25 13:18:42;;;;;;;5.43;2.53;;;;;;;;;;5116324;28;20028;-77
2021/05/25 13:21:09;;;;;;;3.70;2.30;;;;;;;;;;5116426;28;20028;-79
2021/05/25 13:23:35;;;;;;;5.50;2.78;;;;;;;;;;5116708;28;20027;-79
2021/05/25 13:26:21;;;;;;;3.40;2.83;;;;;;;;;;5116208;28;20031;-79
2021/05/25 13:28:50;;;;;;;8.45;2.85;;;;;;;;;;5116628;28;20457;-79
2021/05/25 13:31:20;;;;;;;4.28;2.30;;;;;;;;;;5116037;28;20473;-78
2021/05/25 13:33:47;;;;;;;14.02;3.60;;;;;;;;;;5115488;28;20059;-80
2021/05/25 13:36:13;;;;;;;4.70;3.13;;;;;;;;;;5116515;28;20094;-77
2021/05/25 13:38:42;;;;;;;6.22;2.85;;;;;;;;;;5116449;28;20028;-77
2021/05/25 13:41:09;;;;;;;12.43;3.05;;;;;;;;;;5116132;28;20043;-78
2021/05/25 13:43:35;;;;;;;8.45;2.72;;;;;;;;;;5116432;28;20032;-79
2021/05/25 13:46:04;;;;;;;7.97;2.47;;;;;;;;;;5116483;28;20382;-78
2021/05/25 13:48:30;;;;;;;9.30;2.78;;;;;;;;;;5116214;28;20023;-78
2021/05/25 13:50:57;;;;;;;7.05;2.78;;;;;;;;;;5116408;28;20371;-76
2021/05/25 13:53:23;;;;;;;9.30;3.75;;;;;;;;;;5116317;28;20144;-78
2021/05/25 13:55:49;;;;;;;8.68;4.43;;;;;;;;;;5115798;28;20188;-76
2021/05/25 13:58:19;;;;;;;5.13;2.78;;;;;;;;;;5115798;28;20019;-82
2021/05/25 14:01:00;;;;;;;9.63;5.05;;;;;;;;;;5116173;28;20509;-81
2021/05/25 14:03:26;;;;;;;11.55;3.20;;;;;;;;;;5097383;28;20028;-77
2021/05/25 14:05:52;;;;;;;7.55;3.17;;;;;;;;;;5116287;28;20061;-80
2021/05/25 14:08:19;;;;;;;8.65;3.40;;;;;;;;;;5115794;28;20062;-78
2021/05/25 14:10:45;;;;;;;7.38;3.58;;;;;;;;;;5115534;28;20032;-80
2021/05/25 14:13:14;;;;;;;7.13;2.65;;;;;;;;;;5115900;28;20386;-78
2021/05/25 14:15:41;;;;;;;7.85;2.90;;;;;;;;;;5098063;28;20536;-77
2021/05/25 14:18:07;;;;;;;14.50;3.67;;;;;;;;;;5115380;28;20023;-77
2021/05/25 14:20:34;;;;;;;6.47;2.60;;;;;;;;;;5114389;28;20067;-78
2021/05/25 14:23:01;;;;;;;7.18;3.17;;;;;;;;;;5115015;28;20426;-79
2021/05/25 14:25:28;;;;;;;5.32;2.63;;;;;;;;;;5095830;28;20066;-78
2021/05/25 14:27:54;;;;;;;7.93;3.58;;;;;;;;;;5114939;28;20479;-79
2021/05/25 14:30:21;;;;;;;12.77;3.20;;;;;;;;;;5114890;28;20055;-78
2021/05/25 14:32:47;;;;;;;9.10;4.68;;;;;;;;;;5114610;28;20023;-77
2021/05/25 14:35:13;;;;;;;7.82;3.70;;;;;;;;;;5114309;28;20040;-78
2021/05/25 14:37:40;;;;;;;16.02;11.27;;;;;;;;;;5114562;28;20058;-77
2021/05/25 14:40:06;;;;;;;7.28;3.45;;;;;;;;;;5114442;28;20039;-76
2021/05/25 14:42:32;;;;;;;7.43;3.03;;;;;;;;;;5114581;28;20028;-79
2021/05/25 14:44:59;;;;;;;6.32;2.92;;;;;;;;;;5114738;28;20066;-78
2021/05/25 14:47:25;;;;;;;9.38;3.45;;;;;;;;;;5114116;28;20031;-79
2021/05/25 14:49:51;;;;;;;11.57;5.40;;;;;;;;;;5114295;28;20088;-77
2021/05/25 14:52:18;;;;;;;5.55;3.10;;;;;;;;;;5114096;28;20031;-76
2021/05/25 14:54:45;;;;;;;12.25;4.05;;;;;;;;;;5113848;28;20034;-75
2021/05/25 14:57:12;;;;;;;7.72;3.15;;;;;;;;;;5114134;28;20016;-77
2021/05/25 14:59:40;;;;;;;7.65;2.53;;;;;;;;;;5113915;28;20114;-76
2021/05/25 15:05:00;;;;;;;7.10;2.78;;;;;;;;;;5114240;28;20035;-77
2021/05/25 15:07:30;;;;;;;;;;;;;;;;;;5114404;28;20027;-76
2021/05/25 15:10:04;;;;;;;6.15;3.05;;;;;;;;;;5111365;28;20399;-81
2021/05/25 15:12:30;;;;;;;7.50;2.60;;;;;;;;;;5113750;28;20364;-77